createdAt,value
2023-11-01T00:00:20.932Z,5.80
2023-11-01T00:05:23.617Z,6.32
2023-11-01T00:10:26.292Z,6.07
2023-11-01T00:15:29.444Z,6.78
2023-11-01T00:20:32.085Z,5.70
2023-11-01T00:25:36.764Z,6.60
2023-11-01T00:30:39.528Z,6.20
2023-11-01T00:35:42.688Z,5.28
2023-11-01T00:40:45.322Z,5.07
2023-11-01T00:45:47.996Z,5.72
2023-11-01T00:50:50.583Z,5.53
2023-11-01T00:55:53.133Z,5.35
2023-11-01T01:00:55.728Z,5.75
2023-11-01T01:05:58.315Z,9.10
2023-11-01T01:11:00.890Z,6.53
2023-11-01T01:16:04.772Z,4.32
2023-11-01T01:21:07.420Z,7.00
2023-11-01T01:26:10.061Z,5.18
2023-11-01T01:31:12.718Z,4.82
2023-11-01T01:36:15.310Z,4.70
2023-11-01T01:41:17.980Z,4.53
2023-11-01T01:46:20.863Z,4.55
2023-11-01T01:51:23.507Z,3.97
2023-11-01T01:56:26.334Z,4.13
2023-11-01T02:01:38.780Z,4.13
2023-11-01T02:06:45.844Z,4.00
2023-11-01T02:11:48.448Z,4.07
2023-11-01T02:16:52.118Z,4.68
2023-11-01T02:21:54.758Z,5.35
2023-11-01T02:26:57.344Z,5.20
2023-11-01T02:32:00.059Z,4.68
2023-11-01T02:37:02.600Z,4.07
2023-11-01T02:42:05.910Z,3.72
2023-11-01T02:47:08.475Z,3.92
2023-11-01T02:52:11.117Z,3.67
2023-11-01T02:57:13.742Z,4.18
2023-11-01T03:02:16.440Z,4.35
2023-11-01T03:07:28.157Z,5.25
2023-11-01T03:12:30.800Z,10.43
2023-11-01T03:17:33.522Z,7.97
2023-11-01T03:22:36.647Z,7.03
2023-11-01T03:27:39.380Z,8.00
2023-11-01T03:32:42.178Z,3.50
2023-11-01T03:37:44.856Z,8.05
2023-11-01T03:42:47.548Z,4.57
2023-11-01T03:47:50.504Z,4.60
2023-11-01T03:52:53.227Z,6.50
2023-11-01T03:57:55.843Z,5.70
2023-11-01T04:02:58.615Z,4.70
2023-11-01T04:08:01.295Z,4.68
2023-11-01T04:13:05.193Z,3.92
2023-11-01T04:18:08.326Z,4.90
2023-11-01T04:23:11.045Z,3.47
2023-11-01T04:28:13.680Z,3.08
2023-11-01T04:33:16.863Z,3.53
2023-11-01T04:38:20.079Z,3.35
2023-11-01T04:43:22.755Z,3.53
2023-11-01T04:48:25.497Z,2.65
2023-11-01T04:53:31.695Z,3.92
2023-11-01T04:58:36.508Z,5.05
2023-11-01T05:03:39.497Z,3.53
2023-11-01T05:08:42.240Z,5.55
2023-11-01T05:13:44.964Z,4.50
2023-11-01T05:18:47.620Z,3.72
2023-11-01T05:23:50.328Z,4.30
2023-11-01T05:28:52.961Z,4.68
2023-11-01T05:33:55.677Z,3.30
2023-11-01T05:38:58.536Z,4.68
2023-11-01T05:44:01.458Z,5.75
2023-11-01T05:49:05.734Z,5.90
2023-11-01T05:54:08.444Z,7.05
2023-11-01T05:59:11.261Z,5.65
2023-11-01T06:04:14.008Z,8.80
2023-11-01T06:09:21.125Z,11.18
2023-11-01T06:14:27.100Z,7.57
2023-11-01T06:19:33.472Z,5.20
2023-11-01T06:24:36.917Z,5.25
2023-11-01T06:29:40.237Z,6.10
2023-11-01T06:34:43.101Z,3.45
2023-11-01T06:39:45.839Z,3.13
2023-11-01T06:44:49.073Z,10.00
2023-11-01T06:49:52.497Z,4.22
2023-11-01T06:54:55.801Z,4.60
2023-11-01T06:59:58.816Z,5.18
2023-11-01T07:05:04.132Z,8.50
2023-11-01T07:10:09.516Z,6.47
2023-11-01T07:15:13.645Z,6.40
2023-11-01T07:20:16.548Z,8.43
2023-11-01T07:25:19.313Z,7.07
2023-11-01T07:30:23.042Z,6.88
2023-11-01T07:35:26.401Z,2.92
2023-11-01T07:40:29.770Z,6.25
2023-11-01T07:45:33.173Z,6.15
2023-11-01T07:50:36.528Z,6.18
2023-11-01T07:55:40.061Z,6.97
2023-11-01T08:00:43.472Z,9.00
2023-11-01T08:05:47.063Z,6.93
2023-11-01T08:10:50.259Z,7.22
2023-11-01T08:15:53.989Z,5.05
2023-11-01T08:20:57.653Z,5.20
2023-11-01T08:26:01.476Z,6.70
2023-11-01T08:31:05.453Z,4.85
2023-11-01T08:36:09.473Z,3.33
2023-11-01T08:41:16.509Z,3.47
2023-11-01T08:46:20.990Z,2.85
2023-11-01T08:51:24.516Z,3.05
2023-11-01T08:56:27.910Z,1.70
2023-11-01T09:01:31.646Z,4.10
2023-11-01T09:06:35.957Z,2.33
2023-11-01T09:11:39.672Z,3.67
2023-11-01T09:16:43.142Z,3.67
2023-11-01T09:21:46.317Z,3.63
2023-11-01T09:26:49.595Z,3.28
2023-11-01T09:31:53.438Z,2.63
2023-11-01T09:36:57.987Z,2.92
2023-11-01T09:47:20.340Z,2.67
2023-11-01T09:52:25.857Z,2.70
2023-11-01T09:57:31.555Z,2.47
2023-11-01T10:02:36.474Z,2.50
2023-11-01T10:07:39.625Z,1.80
2023-11-01T10:12:45.366Z,2.28
2023-11-01T10:17:49.253Z,1.40
2023-11-01T10:22:52.937Z,1.55
2023-11-01T10:27:57.110Z,1.95
2023-11-01T10:33:01.487Z,1.95
2023-11-01T10:38:07.242Z,2.78
2023-11-01T10:43:11.420Z,1.42
2023-11-01T10:48:16.516Z,1.15
2023-11-01T10:53:24.192Z,1.52
2023-11-01T10:58:29.736Z,1.60
2023-11-01T11:03:45.231Z,2.05
2023-11-01T11:09:26.337Z,1.42
2023-11-01T11:15:05.860Z,1.50
2023-11-01T11:20:13.786Z,1.20
2023-11-01T11:25:47.429Z,1.88
2023-11-01T11:31:10.514Z,1.48
2023-11-01T11:36:25.518Z,1.42
2023-11-01T11:41:30.431Z,2.28
2023-11-01T11:46:36.944Z,1.63
2023-11-01T11:51:53.670Z,2.65
2023-11-01T11:56:59.651Z,1.75
2023-11-01T12:02:18.775Z,2.90
2023-11-01T12:07:26.843Z,2.35
2023-11-01T12:12:31.512Z,2.55
2023-11-01T12:17:35.373Z,2.92
2023-11-01T12:22:45.869Z,3.28
2023-11-01T12:27:52.799Z,3.20
2023-11-01T12:32:56.082Z,1.58
2023-11-01T12:38:02.881Z,3.58
2023-11-01T12:43:13.238Z,1.83
2023-11-01T12:48:17.430Z,3.88
2023-11-01T12:53:20.084Z,4.60
2023-11-01T12:58:23.845Z,4.45
2023-11-01T13:03:27.183Z,4.13
2023-11-01T13:08:30.372Z,3.70
2023-11-01T13:13:33.276Z,3.70
2023-11-01T13:18:36.031Z,4.78
2023-11-01T13:23:38.858Z,3.53
2023-11-01T13:28:41.608Z,4.65
2023-11-01T13:33:44.369Z,4.45
2023-11-01T13:38:47.165Z,4.40
2023-11-01T13:43:49.827Z,3.55
2023-11-01T13:48:52.505Z,4.68
2023-11-01T13:53:55.424Z,4.35
2023-11-01T13:58:58.387Z,4.20
2023-11-01T14:04:01.356Z,3.80
2023-11-01T14:09:05.500Z,3.75
2023-11-01T14:14:08.299Z,4.35
2023-11-01T14:19:12.019Z,5.38
2023-11-01T14:24:18.220Z,4.40
2023-11-01T14:29:22.259Z,5.47
2023-11-01T14:34:29.329Z,6.15
2023-11-01T14:39:32.067Z,8.02
2023-11-01T14:44:34.895Z,8.50
2023-11-01T14:49:37.679Z,8.27
2023-11-01T14:54:40.582Z,6.50
2023-11-01T14:59:43.439Z,5.07
2023-11-01T15:04:48.938Z,6.10
2023-11-01T15:09:51.818Z,5.25
2023-11-01T15:14:54.663Z,7.10
2023-11-01T15:19:58.937Z,4.53
2023-11-01T15:25:01.769Z,5.40
2023-11-01T15:30:05.782Z,3.10
2023-11-01T15:35:08.971Z,3.67
2023-11-01T15:40:12.048Z,4.78
2023-11-01T15:45:16.507Z,3.00
2023-11-01T15:50:19.706Z,3.65
2023-11-01T15:55:22.582Z,4.47
2023-11-01T16:00:25.911Z,3.58
2023-11-01T16:05:29.806Z,4.93
2023-11-01T16:10:32.684Z,3.63
2023-11-01T16:15:35.714Z,3.97
2023-11-01T16:20:39.824Z,4.07
2023-11-01T16:25:43.187Z,4.82
2023-11-01T16:30:46.155Z,5.20
2023-11-01T16:35:50.714Z,5.40
2023-11-01T16:40:53.637Z,3.15
2023-11-01T16:45:56.443Z,3.95
2023-11-01T16:50:59.301Z,4.00
2023-11-01T16:56:03.543Z,4.70
2023-11-01T17:01:06.613Z,3.75
2023-11-01T17:06:09.983Z,4.43
2023-11-01T17:11:12.757Z,4.30
2023-11-01T17:16:15.493Z,4.05
2023-11-01T17:21:18.461Z,3.92
2023-11-01T17:26:28.768Z,4.95
2023-11-01T17:31:43.061Z,4.00
2023-11-01T17:42:11.155Z,3.50
2023-11-01T17:47:31.213Z,5.78
2023-11-01T17:52:41.703Z,5.15
2023-11-01T17:57:46.659Z,2.88
2023-11-01T18:03:10.186Z,3.25
2023-11-01T18:08:17.873Z,3.90
2023-11-01T18:13:34.551Z,7.80
2023-11-01T18:18:42.030Z,8.98
2023-11-01T18:23:54.079Z,6.78
2023-11-01T18:29:02.735Z,8.25
2023-11-01T18:34:08.941Z,5.93
2023-11-01T18:39:12.522Z,6.63
2023-11-01T18:44:24.943Z,4.85
2023-11-01T18:50:01.948Z,4.40
2023-11-01T18:55:08.491Z,4.18
2023-11-01T19:00:21.905Z,4.72
2023-11-01T19:05:24.774Z,3.65
2023-11-01T19:10:36.091Z,5.65
2023-11-01T19:15:38.817Z,3.00
2023-11-01T19:20:44.045Z,4.25
2023-11-01T19:25:47.060Z,4.65
2023-11-01T19:30:49.808Z,4.70
2023-11-01T19:35:55.593Z,3.22
2023-11-01T19:41:01.678Z,5.05
2023-11-01T19:46:04.879Z,5.40
2023-11-01T19:51:08.449Z,4.32
2023-11-01T19:56:11.145Z,3.78
2023-11-01T20:01:15.018Z,4.30
2023-11-01T20:06:17.885Z,4.82
2023-11-01T20:11:20.590Z,4.07
2023-11-01T20:16:30.263Z,3.75
2023-11-01T20:21:34.125Z,4.82
2023-11-01T20:26:37.020Z,6.07
2023-11-01T20:31:39.582Z,5.50
2023-11-01T20:36:42.165Z,4.80
2023-11-01T20:41:45.657Z,5.18
2023-11-01T20:46:48.488Z,5.53
2023-11-01T20:51:51.044Z,5.93
2023-11-01T20:56:53.713Z,6.55
2023-11-01T21:01:56.288Z,5.53
2023-11-01T21:07:00.046Z,3.67
2023-11-01T21:12:03.772Z,5.07
2023-11-01T21:17:07.622Z,5.88
2023-11-01T21:22:10.377Z,5.88
2023-11-01T21:27:13.010Z,5.95
2023-11-01T21:32:15.628Z,5.70
2023-11-01T21:37:18.289Z,4.03
2023-11-01T21:42:23.566Z,4.20
2023-11-01T21:47:37.949Z,3.17
2023-11-01T21:52:41.338Z,5.57
2023-11-01T21:57:43.974Z,5.60
2023-11-01T22:02:49.800Z,4.65
2023-11-01T22:07:52.708Z,5.00
2023-11-01T22:12:55.422Z,2.72
2023-11-01T22:17:58.056Z,3.97
2023-11-01T22:23:02.818Z,4.45
2023-11-01T22:28:10.096Z,3.78
2023-11-01T22:33:15.375Z,2.53
2023-11-01T22:38:18.272Z,4.45
2023-11-01T22:43:21.843Z,2.90
2023-11-01T22:48:24.489Z,3.50
2023-11-01T22:53:27.636Z,4.95
2023-11-01T22:58:30.228Z,3.17
2023-11-01T23:03:33.352Z,2.47
2023-11-01T23:08:36.052Z,2.95
2023-11-01T23:13:39.985Z,3.72
2023-11-01T23:18:43.926Z,3.28
2023-11-01T23:23:46.502Z,2.38
2023-11-01T23:29:06.830Z,3.28
2023-11-01T23:34:39.461Z,3.63
2023-11-01T23:39:42.010Z,5.40
2023-11-01T23:44:45.210Z,6.65
2023-11-01T23:49:57.194Z,7.65
2023-11-01T23:55:00.121Z,7.45
